sensor_id;sensor_type;location;lat;lon;timestamp;P1;durP1;ratioP1;P2;durP2;ratioP2
69392;SDS011;56582;44.624;20.378;2022-10-22T00:01:31;9.60;;;6.17;;
69392;SDS011;56582;44.624;20.378;2022-10-22T00:03:57;10.27;;;6.30;;
69392;SDS011;56582;44.624;20.378;2022-10-22T00:06:23;11.68;;;7.40;;
69392;SDS011;56582;44.624;20.378;2022-10-22T00:08:48;11.37;;;6.40;;
69392;SDS011;56582;44.624;20.378;2022-10-22T00:11:15;10.70;;;6.80;;
69392;SDS011;56582;44.624;20.378;2022-10-22T00:13:42;11.02;;;6.43;;
69392;SDS011;56582;44.624;20.378;2022-10-22T00:16:08;12.07;;;6.45;;
69392;SDS011;56582;44.624;20.378;2022-10-22T00:18:34;14.13;;;7.03;;
69392;SDS011;56582;44.624;20.378;2022-10-22T00:21:00;11.57;;;7.05;;
69392;SDS011;56582;44.624;20.378;2022-10-22T00:23:26;10.57;;;6.60;;
69392;SDS011;56582;44.624;20.378;2022-10-22T00:25:52;12.47;;;7.40;;
69392;SDS011;56582;44.624;20.378;2022-10-22T00:28:18;13.35;;;6.65;;
69392;SDS011;56582;44.624;20.378;2022-10-22T00:30:43;10.90;;;6.60;;
69392;SDS011;56582;44.624;20.378;2022-10-22T00:33:09;12.30;;;6.43;;
69392;SDS011;56582;44.624;20.378;2022-10-22T00:35:34;11.43;;;6.67;;
69392;SDS011;56582;44.624;20.378;2022-10-22T00:38:00;12.52;;;6.90;;
69392;SDS011;56582;44.624;20.378;2022-10-22T00:40:26;11.13;;;6.30;;
69392;SDS011;56582;44.624;20.378;2022-10-22T00:42:51;11.65;;;6.38;;
69392;SDS011;56582;44.624;20.378;2022-10-22T00:45:21;9.87;;;6.37;;
69392;SDS011;56582;44.624;20.378;2022-10-22T00:48:10;9.98;;;6.00;;
69392;SDS011;56582;44.624;20.378;2022-10-22T00:51:21;11.83;;;6.53;;
69392;SDS011;56582;44.624;20.378;2022-10-22T00:53:37;16.20;;;6.28;;
69392;SDS011;56582;44.624;20.378;2022-10-22T00:56:05;10.77;;;6.45;;
69392;SDS011;56582;44.624;20.378;2022-10-22T00:58:34;10.15;;;6.80;;
69392;SDS011;56582;44.624;20.378;2022-10-22T01:01:01;11.23;;;6.90;;
69392;SDS011;56582;44.624;20.378;2022-10-22T01:03:27;11.63;;;7.23;;
69392;SDS011;56582;44.624;20.378;2022-10-22T01:05:56;10.90;;;7.22;;
69392;SDS011;56582;44.624;20.378;2022-10-22T01:08:28;8.27;;;5.68;;
69392;SDS011;56582;44.624;20.378;2022-10-22T01:16:58;12.45;;;6.40;;
69392;SDS011;56582;44.624;20.378;2022-10-22T01:22:22;14.55;;;7.45;;
69392;SDS011;56582;44.624;20.378;2022-10-22T01:30:33;11.63;;;6.55;;
69392;SDS011;56582;44.624;20.378;2022-10-22T01:33:04;11.02;;;7.20;;
69392;SDS011;56582;44.624;20.378;2022-10-22T01:35:33;11.73;;;6.55;;
69392;SDS011;56582;44.624;20.378;2022-10-22T01:38:05;13.40;;;7.33;;
69392;SDS011;56582;44.624;20.378;2022-10-22T01:40:41;12.43;;;7.35;;
69392;SDS011;56582;44.624;20.378;2022-10-22T01:43:07;15.82;;;6.50;;
69392;SDS011;56582;44.624;20.378;2022-10-22T01:45:36;10.20;;;7.03;;
69392;SDS011;56582;44.624;20.378;2022-10-22T02:07:11;12.40;;;6.30;;
69392;SDS011;56582;44.624;20.378;2022-10-22T02:09:42;13.30;;;6.35;;
69392;SDS011;56582;44.624;20.378;2022-10-22T02:12:09;11.00;;;6.05;;
69392;SDS011;56582;44.624;20.378;2022-10-22T02:14:36;14.75;;;7.05;;
69392;SDS011;56582;44.624;20.378;2022-10-22T02:17:04;12.73;;;7.47;;
69392;SDS011;56582;44.624;20.378;2022-10-22T02:22:02;11.88;;;7.28;;
69392;SDS011;56582;44.624;20.378;2022-10-22T02:24:28;12.15;;;6.85;;
69392;SDS011;56582;44.624;20.378;2022-10-22T02:27:03;11.33;;;6.90;;
69392;SDS011;56582;44.624;20.378;2022-10-22T02:29:48;12.15;;;7.13;;
69392;SDS011;56582;44.624;20.378;2022-10-22T02:32:23;11.75;;;6.28;;
69392;SDS011;56582;44.624;20.378;2022-10-22T02:34:52;12.38;;;7.95;;
69392;SDS011;56582;44.624;20.378;2022-10-22T02:37:19;12.15;;;6.35;;
69392;SDS011;56582;44.624;20.378;2022-10-22T02:39:46;11.03;;;6.90;;
69392;SDS011;56582;44.624;20.378;2022-10-22T02:42:13;11.27;;;6.90;;
69392;SDS011;56582;44.624;20.378;2022-10-22T02:44:38;12.27;;;7.55;;
69392;SDS011;56582;44.624;20.378;2022-10-22T02:47:04;9.27;;;6.93;;
69392;SDS011;56582;44.624;20.378;2022-10-22T02:49:30;11.45;;;7.85;;
69392;SDS011;56582;44.624;20.378;2022-10-22T02:51:55;12.70;;;7.13;;
69392;SDS011;56582;44.624;20.378;2022-10-22T02:54:21;14.03;;;8.67;;
69392;SDS011;56582;44.624;20.378;2022-10-22T02:56:46;11.93;;;8.30;;
69392;SDS011;56582;44.624;20.378;2022-10-22T02:59:12;14.83;;;8.10;;
69392;SDS011;56582;44.624;20.378;2022-10-22T03:01:37;11.63;;;8.03;;
69392;SDS011;56582;44.624;20.378;2022-10-22T03:04:03;13.40;;;8.13;;
69392;SDS011;56582;44.624;20.378;2022-10-22T03:06:28;14.43;;;7.82;;
69392;SDS011;56582;44.624;20.378;2022-10-22T03:08:54;12.13;;;7.67;;
69392;SDS011;56582;44.624;20.378;2022-10-22T03:11:19;12.43;;;7.87;;
69392;SDS011;56582;44.624;20.378;2022-10-22T03:13:45;11.97;;;7.40;;
69392;SDS011;56582;44.624;20.378;2022-10-22T03:16:10;13.23;;;7.77;;
69392;SDS011;56582;44.624;20.378;2022-10-22T03:18:36;12.53;;;7.23;;
69392;SDS011;56582;44.624;20.378;2022-10-22T03:21:20;13.23;;;7.20;;
69392;SDS011;56582;44.624;20.378;2022-10-22T03:24:02;11.02;;;7.00;;
69392;SDS011;56582;44.624;20.378;2022-10-22T03:26:32;13.70;;;7.45;;
69392;SDS011;56582;44.624;20.378;2022-10-22T03:28:58;13.27;;;7.95;;
69392;SDS011;56582;44.624;20.378;2022-10-22T03:31:24;14.85;;;7.82;;
69392;SDS011;56582;44.624;20.378;2022-10-22T03:33:50;12.87;;;7.63;;
69392;SDS011;56582;44.624;20.378;2022-10-22T03:36:16;14.67;;;7.73;;
69392;SDS011;56582;44.624;20.378;2022-10-22T03:38:41;15.35;;;8.25;;
69392;SDS011;56582;44.624;20.378;2022-10-22T03:41:07;11.67;;;7.50;;
69392;SDS011;56582;44.624;20.378;2022-10-22T03:43:33;11.52;;;6.75;;
69392;SDS011;56582;44.624;20.378;2022-10-22T03:46:00;12.25;;;7.60;;
69392;SDS011;56582;44.624;20.378;2022-10-22T03:48:25;12.30;;;7.57;;
69392;SDS011;56582;44.624;20.378;2022-10-22T03:50:51;15.83;;;8.00;;
69392;SDS011;56582;44.624;20.378;2022-10-22T03:53:16;15.23;;;7.33;;
69392;SDS011;56582;44.624;20.378;2022-10-22T03:55:41;13.63;;;7.43;;
69392;SDS011;56582;44.624;20.378;2022-10-22T03:58:07;11.73;;;7.30;;
69392;SDS011;56582;44.624;20.378;2022-10-22T04:00:33;14.00;;;7.68;;
69392;SDS011;56582;44.624;20.378;2022-10-22T04:02:59;12.83;;;6.87;;
69392;SDS011;56582;44.624;20.378;2022-10-22T04:05:25;11.85;;;7.07;;
69392;SDS011;56582;44.624;20.378;2022-10-22T04:07:50;13.10;;;7.10;;
69392;SDS011;56582;44.624;20.378;2022-10-22T04:10:16;12.17;;;7.13;;
69392;SDS011;56582;44.624;20.378;2022-10-22T04:12:41;13.33;;;7.83;;
69392;SDS011;56582;44.624;20.378;2022-10-22T04:15:07;15.10;;;7.67;;
69392;SDS011;56582;44.624;20.378;2022-10-22T04:17:34;11.55;;;7.35;;
69392;SDS011;56582;44.624;20.378;2022-10-22T04:20:00;13.82;;;7.35;;
69392;SDS011;56582;44.624;20.378;2022-10-22T04:22:26;12.73;;;7.28;;
69392;SDS011;56582;44.624;20.378;2022-10-22T04:24:52;16.60;;;8.13;;
69392;SDS011;56582;44.624;20.378;2022-10-22T04:27:17;9.60;;;5.60;;
69392;SDS011;56582;44.624;20.378;2022-10-22T04:29:43;11.47;;;7.07;;
69392;SDS011;56582;44.624;20.378;2022-10-22T04:32:08;10.35;;;6.15;;
69392;SDS011;56582;44.624;20.378;2022-10-22T04:34:34;12.03;;;6.93;;
69392;SDS011;56582;44.624;20.378;2022-10-22T04:36:59;11.93;;;6.20;;
69392;SDS011;56582;44.624;20.378;2022-10-22T04:39:26;19.90;;;7.28;;
69392;SDS011;56582;44.624;20.378;2022-10-22T04:41:51;22.70;;;13.97;;
69392;SDS011;56582;44.624;20.378;2022-10-22T04:44:17;17.25;;;7.65;;
69392;SDS011;56582;44.624;20.378;2022-10-22T04:46:42;18.93;;;10.30;;
69392;SDS011;56582;44.624;20.378;2022-10-22T04:49:08;15.63;;;7.53;;
69392;SDS011;56582;44.624;20.378;2022-10-22T04:51:33;15.25;;;8.10;;
69392;SDS011;56582;44.624;20.378;2022-10-22T04:53:59;16.63;;;6.67;;
69392;SDS011;56582;44.624;20.378;2022-10-22T04:56:25;13.27;;;7.87;;
69392;SDS011;56582;44.624;20.378;2022-10-22T04:58:54;11.63;;;5.95;;
69392;SDS011;56582;44.624;20.378;2022-10-22T05:01:22;22.08;;;13.68;;
69392;SDS011;56582;44.624;20.378;2022-10-22T05:03:52;16.42;;;10.55;;
69392;SDS011;56582;44.624;20.378;2022-10-22T05:06:20;11.73;;;6.43;;
69392;SDS011;56582;44.624;20.378;2022-10-22T05:08:46;12.65;;;7.32;;
69392;SDS011;56582;44.624;20.378;2022-10-22T05:11:17;11.75;;;7.50;;
69392;SDS011;56582;44.624;20.378;2022-10-22T05:13:46;14.55;;;7.00;;
69392;SDS011;56582;44.624;20.378;2022-10-22T05:16:12;13.83;;;6.97;;
69392;SDS011;56582;44.624;20.378;2022-10-22T05:18:39;13.73;;;7.70;;
69392;SDS011;56582;44.624;20.378;2022-10-22T05:21:13;11.50;;;7.05;;
69392;SDS011;56582;44.624;20.378;2022-10-22T05:23:44;10.88;;;7.00;;
69392;SDS011;56582;44.624;20.378;2022-10-22T05:26:11;10.90;;;6.07;;
69392;SDS011;56582;44.624;20.378;2022-10-22T05:28:38;13.63;;;6.90;;
69392;SDS011;56582;44.624;20.378;2022-10-22T05:31:04;11.63;;;6.22;;
69392;SDS011;56582;44.624;20.378;2022-10-22T05:33:31;11.55;;;6.32;;
69392;SDS011;56582;44.624;20.378;2022-10-22T05:35:57;10.27;;;6.43;;
69392;SDS011;56582;44.624;20.378;2022-10-22T05:38:23;11.70;;;6.67;;
69392;SDS011;56582;44.624;20.378;2022-10-22T05:41:02;10.82;;;6.85;;
69392;SDS011;56582;44.624;20.378;2022-10-22T05:43:31;10.65;;;6.05;;
69392;SDS011;56582;44.624;20.378;2022-10-22T05:46:00;11.15;;;7.00;;
69392;SDS011;56582;44.624;20.378;2022-10-22T05:48:30;11.00;;;5.67;;
69392;SDS011;56582;44.624;20.378;2022-10-22T05:50:56;20.67;;;7.80;;
69392;SDS011;56582;44.624;20.378;2022-10-22T05:53:21;12.20;;;5.63;;
69392;SDS011;56582;44.624;20.378;2022-10-22T05:55:47;12.57;;;7.13;;
69392;SDS011;56582;44.624;20.378;2022-10-22T05:58:13;15.20;;;4.83;;
69392;SDS011;56582;44.624;20.378;2022-10-22T06:00:38;10.20;;;6.20;;
69392;SDS011;56582;44.624;20.378;2022-10-22T06:03:04;11.03;;;6.47;;
69392;SDS011;56582;44.624;20.378;2022-10-22T06:05:33;8.95;;;5.75;;
69392;SDS011;56582;44.624;20.378;2022-10-22T06:07:59;10.20;;;5.75;;
69392;SDS011;56582;44.624;20.378;2022-10-22T06:10:25;9.73;;;5.20;;
69392;SDS011;56582;44.624;20.378;2022-10-22T06:12:50;7.70;;;4.35;;
69392;SDS011;56582;44.624;20.378;2022-10-22T06:15:17;10.70;;;5.43;;
69392;SDS011;56582;44.624;20.378;2022-10-22T06:17:49;10.65;;;6.05;;
69392;SDS011;56582;44.624;20.378;2022-10-22T06:20:15;9.03;;;5.40;;
69392;SDS011;56582;44.624;20.378;2022-10-22T06:22:40;9.25;;;5.07;;
69392;SDS011;56582;44.624;20.378;2022-10-22T06:25:06;10.37;;;5.83;;
69392;SDS011;56582;44.624;20.378;2022-10-22T06:27:36;9.35;;;6.35;;
69392;SDS011;56582;44.624;20.378;2022-10-22T06:30:01;8.53;;;4.87;;
69392;SDS011;56582;44.624;20.378;2022-10-22T06:32:27;8.90;;;6.35;;
69392;SDS011;56582;44.624;20.378;2022-10-22T06:34:53;12.90;;;6.03;;
69392;SDS011;56582;44.624;20.378;2022-10-22T06:37:18;11.27;;;5.97;;
69392;SDS011;56582;44.624;20.378;2022-10-22T06:39:44;9.52;;;4.60;;
69392;SDS011;56582;44.624;20.378;2022-10-22T06:42:09;11.57;;;5.77;;
69392;SDS011;56582;44.624;20.378;2022-10-22T06:44:34;10.03;;;5.80;;
69392;SDS011;56582;44.624;20.378;2022-10-22T06:47:00;11.63;;;5.70;;
69392;SDS011;56582;44.624;20.378;2022-10-22T06:49:26;10.48;;;5.55;;
69392;SDS011;56582;44.624;20.378;2022-10-22T06:51:52;8.27;;;5.30;;
69392;SDS011;56582;44.624;20.378;2022-10-22T06:54:17;9.37;;;5.50;;
69392;SDS011;56582;44.624;20.378;2022-10-22T06:56:43;9.88;;;6.65;;
69392;SDS011;56582;44.624;20.378;2022-10-22T06:59:09;13.27;;;7.50;;
69392;SDS011;56582;44.624;20.378;2022-10-22T07:01:35;13.05;;;7.60;;
69392;SDS011;56582;44.624;20.378;2022-10-22T07:04:01;13.80;;;7.60;;
69392;SDS011;56582;44.624;20.378;2022-10-22T07:06:29;14.30;;;7.30;;
69392;SDS011;56582;44.624;20.378;2022-10-22T07:08:56;16.98;;;7.50;;
69392;SDS011;56582;44.624;20.378;2022-10-22T07:11:24;13.48;;;7.32;;
69392;SDS011;56582;44.624;20.378;2022-10-22T07:13:52;11.15;;;6.78;;
69392;SDS011;56582;44.624;20.378;2022-10-22T07:16:19;14.33;;;6.97;;
69392;SDS011;56582;44.624;20.378;2022-10-22T07:18:45;13.13;;;7.00;;
69392;SDS011;56582;44.624;20.378;2022-10-22T07:21:11;12.43;;;7.60;;
69392;SDS011;56582;44.624;20.378;2022-10-22T07:23:37;14.15;;;7.53;;
69392;SDS011;56582;44.624;20.378;2022-10-22T07:26:03;12.10;;;7.00;;
69392;SDS011;56582;44.624;20.378;2022-10-22T07:28:31;17.20;;;7.85;;
69392;SDS011;56582;44.624;20.378;2022-10-22T07:30:58;13.32;;;7.50;;
69392;SDS011;56582;44.624;20.378;2022-10-22T07:33:24;14.43;;;6.90;;
69392;SDS011;56582;44.624;20.378;2022-10-22T07:35:55;17.48;;;7.13;;
69392;SDS011;56582;44.624;20.378;2022-10-22T07:38:28;13.43;;;7.63;;
69392;SDS011;56582;44.624;20.378;2022-10-22T07:40:55;13.68;;;8.20;;
69392;SDS011;56582;44.624;20.378;2022-10-22T07:43:21;16.80;;;9.00;;
69392;SDS011;56582;44.624;20.378;2022-10-22T07:45:50;15.53;;;7.83;;
69392;SDS011;56582;44.624;20.378;2022-10-22T07:48:15;14.07;;;7.40;;
69392;SDS011;56582;44.624;20.378;2022-10-22T07:50:41;16.33;;;9.00;;
69392;SDS011;56582;44.624;20.378;2022-10-22T07:53:07;18.20;;;8.77;;
69392;SDS011;56582;44.624;20.378;2022-10-22T07:55:32;16.53;;;7.50;;
69392;SDS011;56582;44.624;20.378;2022-10-22T07:57:58;14.83;;;7.33;;
69392;SDS011;56582;44.624;20.378;2022-10-22T08:00:24;13.98;;;6.57;;
69392;SDS011;56582;44.624;20.378;2022-10-22T08:02:49;13.53;;;6.30;;
69392;SDS011;56582;44.624;20.378;2022-10-22T08:05:15;12.23;;;6.87;;
69392;SDS011;56582;44.624;20.378;2022-10-22T08:07:41;11.52;;;6.65;;
69392;SDS011;56582;44.624;20.378;2022-10-22T08:10:07;11.05;;;6.53;;
69392;SDS011;56582;44.624;20.378;2022-10-22T08:12:34;12.43;;;6.57;;
69392;SDS011;56582;44.624;20.378;2022-10-22T08:15:00;11.55;;;5.72;;
69392;SDS011;56582;44.624;20.378;2022-10-22T08:17:26;9.93;;;5.53;;
69392;SDS011;56582;44.624;20.378;2022-10-22T08:19:51;11.25;;;5.80;;
69392;SDS011;56582;44.624;20.378;2022-10-22T08:22:17;10.87;;;6.47;;
69392;SDS011;56582;44.624;20.378;2022-10-22T08:24:42;11.60;;;7.30;;
69392;SDS011;56582;44.624;20.378;2022-10-22T08:27:08;11.40;;;6.50;;
69392;SDS011;56582;44.624;20.378;2022-10-22T08:29:33;13.23;;;7.60;;
69392;SDS011;56582;44.624;20.378;2022-10-22T08:31:59;13.52;;;7.82;;
69392;SDS011;56582;44.624;20.378;2022-10-22T08:34:26;15.03;;;7.47;;
69392;SDS011;56582;44.624;20.378;2022-10-22T08:36:52;11.57;;;7.00;;
69392;SDS011;56582;44.624;20.378;2022-10-22T08:39:18;15.37;;;7.17;;
69392;SDS011;56582;44.624;20.378;2022-10-22T08:50:16;15.00;;;9.70;;
69392;SDS011;56582;44.624;20.378;2022-10-22T08:52:48;15.30;;;10.15;;
69392;SDS011;56582;44.624;20.378;2022-10-22T08:55:15;21.45;;;9.60;;
69392;SDS011;56582;44.624;20.378;2022-10-22T08:57:45;15.33;;;8.23;;
69392;SDS011;56582;44.624;20.378;2022-10-22T09:00:14;16.67;;;8.57;;
69392;SDS011;56582;44.624;20.378;2022-10-22T09:05:39;14.05;;;8.00;;
69392;SDS011;56582;44.624;20.378;2022-10-22T09:08:12;15.10;;;8.93;;
69392;SDS011;56582;44.624;20.378;2022-10-22T09:10:42;14.02;;;8.77;;
69392;SDS011;56582;44.624;20.378;2022-10-22T09:13:13;11.98;;;7.90;;
69392;SDS011;56582;44.624;20.378;2022-10-22T09:15:42;13.85;;;9.05;;
69392;SDS011;56582;44.624;20.378;2022-10-22T09:25:40;12.50;;;7.20;;
69392;SDS011;56582;44.624;20.378;2022-10-22T09:28:07;12.88;;;8.23;;
69392;SDS011;56582;44.624;20.378;2022-10-22T09:30:34;11.48;;;7.10;;
69392;SDS011;56582;44.624;20.378;2022-10-22T09:35:32;19.42;;;7.47;;
69392;SDS011;56582;44.624;20.378;2022-10-22T09:38:06;11.10;;;6.97;;
69392;SDS011;56582;44.624;20.378;2022-10-22T09:40:41;12.45;;;7.15;;
69392;SDS011;56582;44.624;20.378;2022-10-22T09:43:11;14.15;;;7.35;;
69392;SDS011;56582;44.624;20.378;2022-10-22T09:45:37;13.63;;;6.97;;
69392;SDS011;56582;44.624;20.378;2022-10-22T09:50:42;12.57;;;6.87;;
69392;SDS011;56582;44.624;20.378;2022-10-22T09:55:41;15.38;;;8.15;;
69392;SDS011;56582;44.624;20.378;2022-10-22T09:58:09;14.85;;;8.85;;
69392;SDS011;56582;44.624;20.378;2022-10-22T10:00:40;19.02;;;7.70;;
69392;SDS011;56582;44.624;20.378;2022-10-22T10:03:11;11.40;;;6.67;;
69392;SDS011;56582;44.624;20.378;2022-10-22T10:05:42;13.10;;;7.72;;
69392;SDS011;56582;44.624;20.378;2022-10-22T10:08:13;15.48;;;7.93;;
69392;SDS011;56582;44.624;20.378;2022-10-22T10:10:51;17.50;;;8.00;;
69392;SDS011;56582;44.624;20.378;2022-10-22T10:19:16;17.13;;;7.88;;
69392;SDS011;56582;44.624;20.378;2022-10-22T10:21:56;13.48;;;7.63;;
69392;SDS011;56582;44.624;20.378;2022-10-22T10:29:53;14.07;;;7.80;;
69392;SDS011;56582;44.624;20.378;2022-10-22T10:32:26;13.15;;;8.52;;
69392;SDS011;56582;44.624;20.378;2022-10-22T10:37:45;12.93;;;8.07;;
69392;SDS011;56582;44.624;20.378;2022-10-22T10:43:25;13.03;;;7.53;;
69392;SDS011;56582;44.624;20.378;2022-10-22T10:54:17;12.93;;;7.45;;
69392;SDS011;56582;44.624;20.378;2022-10-22T10:56:56;13.87;;;7.10;;
69392;SDS011;56582;44.624;20.378;2022-10-22T11:01:55;14.63;;;7.47;;
69392;SDS011;56582;44.624;20.378;2022-10-22T11:07:36;13.52;;;7.53;;
69392;SDS011;56582;44.624;20.378;2022-10-22T11:12:49;14.18;;;8.60;;
69392;SDS011;56582;44.624;20.378;2022-10-22T11:18:02;12.80;;;8.18;;
69392;SDS011;56582;44.624;20.378;2022-10-22T11:20:40;14.43;;;8.48;;
69392;SDS011;56582;44.624;20.378;2022-10-22T11:23:27;13.00;;;8.02;;
69392;SDS011;56582;44.624;20.378;2022-10-22T11:26:37;16.25;;;8.98;;
69392;SDS011;56582;44.624;20.378;2022-10-22T11:29:10;14.60;;;9.57;;
69392;SDS011;56582;44.624;20.378;2022-10-22T11:31:40;16.05;;;9.52;;
69392;SDS011;56582;44.624;20.378;2022-10-22T11:34:12;16.98;;;8.60;;
69392;SDS011;56582;44.624;20.378;2022-10-22T11:36:42;16.33;;;8.60;;
69392;SDS011;56582;44.624;20.378;2022-10-22T11:39:27;19.63;;;9.30;;
69392;SDS011;56582;44.624;20.378;2022-10-22T11:42:03;15.33;;;9.50;;
69392;SDS011;56582;44.624;20.378;2022-10-22T11:44:44;19.00;;;9.60;;
69392;SDS011;56582;44.624;20.378;2022-10-22T11:47:23;16.52;;;9.52;;
69392;SDS011;56582;44.624;20.378;2022-10-22T11:50:15;15.35;;;9.20;;
69392;SDS011;56582;44.624;20.378;2022-10-22T11:52:54;16.02;;;8.85;;
69392;SDS011;56582;44.624;20.378;2022-10-22T11:55:34;15.53;;;9.33;;
69392;SDS011;56582;44.624;20.378;2022-10-22T12:00:53;14.18;;;8.60;;
69392;SDS011;56582;44.624;20.378;2022-10-22T12:06:28;18.85;;;10.23;;
69392;SDS011;56582;44.624;20.378;2022-10-22T12:16:24;14.55;;;9.32;;
69392;SDS011;56582;44.624;20.378;2022-10-22T12:18:54;15.83;;;10.47;;
69392;SDS011;56582;44.624;20.378;2022-10-22T12:21:25;14.85;;;9.32;;
69392;SDS011;56582;44.624;20.378;2022-10-22T12:23:51;15.60;;;9.30;;
69392;SDS011;56582;44.624;20.378;2022-10-22T12:26:24;15.60;;;9.57;;
69392;SDS011;56582;44.624;20.378;2022-10-22T12:28:57;18.83;;;9.45;;
69392;SDS011;56582;44.624;20.378;2022-10-22T12:31:24;15.38;;;9.20;;
69392;SDS011;56582;44.624;20.378;2022-10-22T12:33:56;44.13;;;20.90;;
69392;SDS011;56582;44.624;20.378;2022-10-22T12:36:26;44.35;;;21.08;;
69392;SDS011;56582;44.624;20.378;2022-10-22T12:38:59;93.93;;;36.75;;
69392;SDS011;56582;44.624;20.378;2022-10-22T12:41:34;89.00;;;36.15;;
69392;SDS011;56582;44.624;20.378;2022-10-22T12:44:02;28.08;;;15.25;;
69392;SDS011;56582;44.624;20.378;2022-10-22T12:46:34;27.50;;;14.20;;
69392;SDS011;56582;44.624;20.378;2022-10-22T12:49:04;54.63;;;26.75;;
69392;SDS011;56582;44.624;20.378;2022-10-22T12:51:32;50.67;;;26.63;;
69392;SDS011;56582;44.624;20.378;2022-10-22T12:54:20;24.47;;;13.57;;
69392;SDS011;56582;44.624;20.378;2022-10-22T12:56:48;17.45;;;10.77;;
69392;SDS011;56582;44.624;20.378;2022-10-22T12:59:19;16.40;;;9.93;;
69392;SDS011;56582;44.624;20.378;2022-10-22T13:01:48;16.17;;;9.68;;
69392;SDS011;56582;44.624;20.378;2022-10-22T13:04:22;17.13;;;10.38;;
69392;SDS011;56582;44.624;20.378;2022-10-22T13:12:23;19.48;;;10.25;;
69392;SDS011;56582;44.624;20.378;2022-10-22T13:14:52;16.77;;;9.95;;
69392;SDS011;56582;44.624;20.378;2022-10-22T13:19:49;18.70;;;9.63;;
69392;SDS011;56582;44.624;20.378;2022-10-22T13:22:30;17.63;;;10.30;;
69392;SDS011;56582;44.624;20.378;2022-10-22T13:25:19;19.15;;;9.15;;
69392;SDS011;56582;44.624;20.378;2022-10-22T13:27:45;19.17;;;9.35;;
69392;SDS011;56582;44.624;20.378;2022-10-22T13:30:17;18.97;;;10.33;;
69392;SDS011;56582;44.624;20.378;2022-10-22T13:32:49;16.40;;;9.45;;
69392;SDS011;56582;44.624;20.378;2022-10-22T13:35:17;18.15;;;9.35;;
69392;SDS011;56582;44.624;20.378;2022-10-22T13:37:45;16.80;;;8.98;;
69392;SDS011;56582;44.624;20.378;2022-10-22T13:40:11;16.10;;;9.67;;
69392;SDS011;56582;44.624;20.378;2022-10-22T13:42:40;18.60;;;9.63;;
69392;SDS011;56582;44.624;20.378;2022-10-22T13:45:06;15.13;;;8.97;;
69392;SDS011;56582;44.624;20.378;2022-10-22T13:47:31;17.08;;;8.93;;
69392;SDS011;56582;44.624;20.378;2022-10-22T13:49:59;20.53;;;9.70;;
69392;SDS011;56582;44.624;20.378;2022-10-22T13:54:53;15.18;;;8.70;;
69392;SDS011;56582;44.624;20.378;2022-10-22T13:57:19;16.07;;;9.50;;
69392;SDS011;56582;44.624;20.378;2022-10-22T13:59:45;17.05;;;9.38;;
69392;SDS011;56582;44.624;20.378;2022-10-22T14:02:12;17.00;;;8.85;;
69392;SDS011;56582;44.624;20.378;2022-10-22T14:04:38;20.33;;;9.80;;
69392;SDS011;56582;44.624;20.378;2022-10-22T14:07:14;16.80;;;10.20;;
69392;SDS011;56582;44.624;20.378;2022-10-22T14:09:41;16.30;;;9.00;;
69392;SDS011;56582;44.624;20.378;2022-10-22T14:12:09;15.15;;;8.40;;
69392;SDS011;56582;44.624;20.378;2022-10-22T14:14:39;18.30;;;8.82;;
69392;SDS011;56582;44.624;20.378;2022-10-22T14:17:05;17.23;;;9.80;;
69392;SDS011;56582;44.624;20.378;2022-10-22T14:19:32;16.50;;;9.05;;
69392;SDS011;56582;44.624;20.378;2022-10-22T14:21:58;18.33;;;8.33;;
69392;SDS011;56582;44.624;20.378;2022-10-22T14:24:23;18.83;;;8.57;;
69392;SDS011;56582;44.624;20.378;2022-10-22T14:26:49;18.73;;;9.20;;
69392;SDS011;56582;44.624;20.378;2022-10-22T14:29:14;17.53;;;9.30;;
69392;SDS011;56582;44.624;20.378;2022-10-22T14:31:40;17.50;;;8.10;;
69392;SDS011;56582;44.624;20.378;2022-10-22T14:34:09;15.50;;;8.73;;
69392;SDS011;56582;44.624;20.378;2022-10-22T14:36:34;24.13;;;11.05;;
69392;SDS011;56582;44.624;20.378;2022-10-22T14:39:00;72.90;;;26.23;;
69392;SDS011;56582;44.624;20.378;2022-10-22T14:41:25;76.50;;;29.53;;
69392;SDS011;56582;44.624;20.378;2022-10-22T14:43:53;20.98;;;11.15;;
69392;SDS011;56582;44.624;20.378;2022-10-22T14:46:23;20.95;;;11.25;;
69392;SDS011;56582;44.624;20.378;2022-10-22T14:48:49;22.97;;;10.37;;
69392;SDS011;56582;44.624;20.378;2022-10-22T14:51:15;18.40;;;10.43;;
69392;SDS011;56582;44.624;20.378;2022-10-22T14:53:43;17.53;;;9.67;;
69392;SDS011;56582;44.624;20.378;2022-10-22T14:59:20;18.17;;;10.43;;
69392;SDS011;56582;44.624;20.378;2022-10-22T15:01:45;18.17;;;10.17;;
69392;SDS011;56582;44.624;20.378;2022-10-22T15:04:11;20.60;;;8.83;;
69392;SDS011;56582;44.624;20.378;2022-10-22T15:06:36;18.33;;;8.93;;
69392;SDS011;56582;44.624;20.378;2022-10-22T15:09:02;18.13;;;8.37;;
69392;SDS011;56582;44.624;20.378;2022-10-22T15:11:27;17.30;;;9.70;;
69392;SDS011;56582;44.624;20.378;2022-10-22T15:13:53;18.70;;;10.07;;
69392;SDS011;56582;44.624;20.378;2022-10-22T15:16:18;18.47;;;8.87;;
69392;SDS011;56582;44.624;20.378;2022-10-22T15:18:44;29.60;;;10.18;;
69392;SDS011;56582;44.624;20.378;2022-10-22T15:21:16;44.13;;;9.80;;
69392;SDS011;56582;44.624;20.378;2022-10-22T15:23:43;19.75;;;10.25;;
69392;SDS011;56582;44.624;20.378;2022-10-22T15:26:09;20.77;;;9.77;;
69392;SDS011;56582;44.624;20.378;2022-10-22T15:28:35;19.42;;;9.88;;
69392;SDS011;56582;44.624;20.378;2022-10-22T15:31:02;18.63;;;9.98;;
69392;SDS011;56582;44.624;20.378;2022-10-22T15:33:28;18.60;;;9.27;;
69392;SDS011;56582;44.624;20.378;2022-10-22T15:35:54;22.42;;;9.40;;
69392;SDS011;56582;44.624;20.378;2022-10-22T15:38:21;18.83;;;9.43;;
69392;SDS011;56582;44.624;20.378;2022-10-22T15:40:50;15.35;;;8.82;;
69392;SDS011;56582;44.624;20.378;2022-10-22T15:43:24;18.10;;;7.90;;
69392;SDS011;56582;44.624;20.378;2022-10-22T15:45:50;19.20;;;10.77;;
69392;SDS011;56582;44.624;20.378;2022-10-22T15:48:41;17.58;;;9.90;;
69392;SDS011;56582;44.624;20.378;2022-10-22T15:51:10;17.60;;;10.03;;
69392;SDS011;56582;44.624;20.378;2022-10-22T15:53:40;21.85;;;10.70;;
69392;SDS011;56582;44.624;20.378;2022-10-22T15:56:06;20.48;;;10.63;;
69392;SDS011;56582;44.624;20.378;2022-10-22T15:58:32;14.32;;;8.20;;
69392;SDS011;56582;44.624;20.378;2022-10-22T16:01:05;20.10;;;11.20;;
69392;SDS011;56582;44.624;20.378;2022-10-22T16:03:32;19.25;;;10.73;;
69392;SDS011;56582;44.624;20.378;2022-10-22T16:05:57;27.38;;;13.23;;
69392;SDS011;56582;44.624;20.378;2022-10-22T16:08:23;26.10;;;13.30;;
69392;SDS011;56582;44.624;20.378;2022-10-22T16:10:49;25.30;;;13.27;;
69392;SDS011;56582;44.624;20.378;2022-10-22T16:13:15;25.33;;;13.55;;
69392;SDS011;56582;44.624;20.378;2022-10-22T16:15:40;32.77;;;11.83;;
69392;SDS011;56582;44.624;20.378;2022-10-22T16:18:06;25.48;;;11.88;;
69392;SDS011;56582;44.624;20.378;2022-10-22T16:20:32;27.03;;;10.83;;
69392;SDS011;56582;44.624;20.378;2022-10-22T16:23:03;24.70;;;11.90;;
69392;SDS011;56582;44.624;20.378;2022-10-22T16:25:28;20.60;;;11.43;;
69392;SDS011;56582;44.624;20.378;2022-10-22T16:27:54;20.87;;;10.77;;
69392;SDS011;56582;44.624;20.378;2022-10-22T16:30:19;20.93;;;11.20;;
69392;SDS011;56582;44.624;20.378;2022-10-22T16:32:45;18.00;;;11.43;;
69392;SDS011;56582;44.624;20.378;2022-10-22T16:35:10;21.95;;;12.43;;